createdAt,value
2023-02-24T00:02:20.018Z,96161.84
2023-02-24T00:04:51.852Z,96166.38
2023-02-24T00:07:20.383Z,96164.56
2023-02-24T00:09:49.055Z,96162.06
2023-02-24T00:12:20.680Z,96164.94
2023-02-24T00:14:48.557Z,96161.56
2023-02-24T00:17:16.467Z,96158.00
2023-02-24T00:19:44.531Z,96152.84
2023-02-24T00:22:12.815Z,96152.22
2023-02-24T00:24:40.782Z,96155.47
2023-02-24T00:27:11.689Z,96158.09
2023-02-24T00:29:42.021Z,96148.88
2023-02-24T00:32:12.846Z,96147.81
2023-02-24T00:34:41.233Z,96149.25
2023-02-24T00:37:09.582Z,96136.09
2023-02-24T00:39:41.670Z,96144.72
2023-02-24T00:42:12.386Z,96133.84
2023-02-24T00:44:45.209Z,96134.06
2023-02-24T00:47:16.215Z,96132.28
2023-02-24T00:49:44.348Z,96136.72
2023-02-24T00:52:14.569Z,96131.56
2023-02-24T00:54:42.892Z,96127.97
2023-02-24T00:57:11.086Z,96123.56
2023-02-24T00:59:39.530Z,96122.72
2023-02-24T01:02:09.038Z,96125.47
2023-02-24T01:04:38.739Z,96120.91
2023-02-24T01:07:10.873Z,96119.94
2023-02-24T01:09:40.381Z,96117.31
2023-02-24T01:12:27.237Z,96114.69
2023-02-24T01:14:55.341Z,96114.69
2023-02-24T01:17:25.397Z,96106.94
2023-02-24T01:19:55.146Z,96113.03
2023-02-24T01:22:23.916Z,96105.97
2023-02-24T01:24:52.101Z,96110.25
2023-02-24T01:27:20.670Z,96109.41
2023-02-24T01:29:49.367Z,96104.16
2023-02-24T01:32:20.279Z,96105.59
2023-02-24T01:34:53.267Z,96104.16
2023-02-24T01:37:21.371Z,96103.09
2023-02-24T01:39:50.152Z,96103.09
2023-02-24T01:42:20.191Z,96098.69
2023-02-24T01:45:13.209Z,96093.63
2023-02-24T01:47:42.348Z,96099.13
2023-02-24T01:50:15.519Z,96097.81
2023-02-24T01:52:47.907Z,96096.16
2023-02-24T01:55:22.279Z,96087.44
2023-02-24T01:57:53.480Z,96087.53
2023-02-24T02:00:38.413Z,96086.72
2023-02-24T02:03:15.681Z,96082.38
2023-02-24T02:05:48.582Z,96086.81
2023-02-24T02:08:18.982Z,96086.44
2023-02-24T02:10:48.149Z,96088.38
2023-02-24T02:13:21.177Z,96085.97
2023-02-24T02:16:04.071Z,96079.75
2023-02-24T02:18:46.792Z,96080.63
2023-02-24T02:21:44.991Z,96081.44
2023-02-24T02:24:32.149Z,96067.47
2023-02-24T02:27:21.221Z,96059.66
2023-02-24T02:30:19.627Z,96059.41
2023-02-24T02:33:09.017Z,96058.69
2023-02-24T02:35:46.461Z,96047.34
2023-02-24T02:38:25.942Z,96046.41
2023-02-24T02:41:02.127Z,96048.31
2023-02-24T02:43:37.229Z,96048.31
2023-02-24T02:46:14.763Z,96043.16
2023-02-24T02:48:50.364Z,96044.00
2023-02-24T02:51:27.500Z,96048.16
2023-02-24T02:54:02.555Z,96040.28
2023-02-24T02:56:36.480Z,96038.50
2023-02-24T02:59:07.511Z,96037.66
2023-02-24T03:01:41.589Z,96030.63
2023-02-24T03:04:13.790Z,96028.81
2023-02-24T03:06:46.220Z,96021.03
2023-02-24T03:09:20.190Z,96021.03
2023-02-24T03:11:55.987Z,96020.19
2023-02-24T03:14:28.215Z,96017.56
2023-02-24T03:16:58.727Z,96022.94
2023-02-24T03:19:32.142Z,96022.13
2023-02-24T03:22:09.350Z,96024.63
2023-02-24T03:24:39.089Z,96014.09
2023-02-24T03:27:14.346Z,96012.41
2023-02-24T03:29:49.629Z,96014.22
2023-02-24T03:32:23.989Z,96006.31
2023-02-24T03:34:58.898Z,96009.69
2023-02-24T03:37:31.628Z,96011.59
2023-02-24T03:40:07.655Z,96009.22
2023-02-24T03:42:36.001Z,96014.56
2023-02-24T03:45:06.383Z,96011.84
2023-02-24T03:47:34.928Z,96018.03
2023-02-24T03:50:11.734Z,96010.16
2023-02-24T03:52:47.452Z,95994.63
2023-02-24T03:55:22.426Z,96003.22
2023-02-24T03:58:04.314Z,96006.78
2023-02-24T04:00:40.659Z,96006.69
2023-02-24T04:03:23.666Z,95996.28
2023-02-24T04:05:59.960Z,96001.66
2023-02-24T04:08:36.214Z,95999.50
2023-02-24T04:11:10.295Z,96007.75
2023-02-24T04:13:43.305Z,96003.84
2023-02-24T04:16:28.863Z,96002.03
2023-02-24T04:19:03.706Z,95996.75
2023-02-24T04:21:34.695Z,96006.19
2023-02-24T04:24:11.884Z,95997.72
2023-02-24T04:26:41.682Z,95999.53
2023-02-24T04:29:13.854Z,95996.19
2023-02-24T04:31:42.409Z,95993.41
2023-02-24T04:34:10.888Z,95993.66
2023-02-24T04:36:40.907Z,95995.22
2023-02-24T04:39:10.130Z,95990.09
2023-02-24T04:41:38.221Z,95980.41
2023-02-24T04:44:06.033Z,95981.22
2023-02-24T04:46:33.931Z,95982.56
2023-02-24T04:49:02.267Z,95981.59
2023-02-24T04:51:32.437Z,95973.94
2023-02-24T04:54:01.480Z,95973.09
2023-02-24T04:56:30.926Z,95974.31
2023-02-24T04:58:58.780Z,95983.84
2023-02-24T05:01:26.688Z,95973.81
2023-02-24T05:03:54.651Z,95971.69
2023-02-24T05:06:22.569Z,95969.41
2023-02-24T05:08:52.388Z,95963.06
2023-02-24T05:11:20.736Z,95960.44
2023-02-24T05:13:51.319Z,95961.38
2023-02-24T05:16:20.451Z,95957.81
2023-02-24T05:18:48.425Z,95952.56
2023-02-24T05:21:35.581Z,95953.38
2023-02-24T05:24:06.841Z,95952.44
2023-02-24T05:26:36.952Z,95940.59
2023-02-24T05:29:07.466Z,95939.50
2023-02-24T05:31:36.988Z,95937.50
2023-02-24T05:34:06.794Z,95929.25
2023-02-24T05:36:41.138Z,95931.75
2023-02-24T05:39:12.304Z,95920.28
2023-02-24T05:41:42.074Z,95918.38
2023-02-24T05:44:13.646Z,95918.47
2023-02-24T05:46:44.541Z,95906.16
2023-02-24T05:49:16.019Z,95899.34
2023-02-24T05:51:54.650Z,95893.03
2023-02-24T05:54:25.889Z,95898.28
2023-02-24T05:56:53.709Z,95894.81
2023-02-24T05:59:22.932Z,95885.75
2023-02-24T06:01:53.747Z,95883.38
2023-02-24T06:04:39.459Z,95889.56
2023-02-24T06:07:13.640Z,95894.97
2023-02-24T06:09:43.544Z,95892.56
2023-02-24T06:12:12.304Z,95886.09
2023-02-24T06:14:42.242Z,95882.75
2023-02-24T06:17:10.357Z,95888.97
2023-02-24T06:19:39.375Z,95889.56
2023-02-24T06:22:10.976Z,95880.13
2023-02-24T06:24:39.409Z,95886.22
2023-02-24T06:28:00.465Z,95888.25
2023-02-24T06:30:30.240Z,95879.66
2023-02-24T06:32:58.162Z,95883.00
2023-02-24T06:35:26.095Z,95878.69
2023-02-24T06:37:55.849Z,95882.19
2023-02-24T06:40:23.780Z,95879.53
2023-02-24T06:42:54.961Z,95875.13
2023-02-24T06:45:24.149Z,95877.84
2023-02-24T06:47:53.688Z,95884.66
2023-02-24T06:50:21.796Z,95878.56
2023-02-24T06:52:53.215Z,95879.19
2023-02-24T06:55:27.275Z,95880.00
2023-02-24T06:57:58.021Z,95882.50
2023-02-24T07:00:37.190Z,95881.94
2023-02-24T07:03:15.534Z,95882.03
2023-02-24T07:05:54.037Z,95880.94
2023-02-24T07:08:24.300Z,95887.06
2023-02-24T07:10:56.632Z,95874.88
2023-02-24T07:13:25.407Z,95870.34
2023-02-24T07:15:53.299Z,95874.75
2023-02-24T07:18:26.587Z,95873.69
2023-02-24T07:20:55.070Z,95872.84
2023-02-24T07:23:22.962Z,95869.13
2023-02-24T07:25:51.411Z,95866.50
2023-02-24T07:28:19.253Z,95866.25
2023-02-24T07:30:47.227Z,95858.97
2023-02-24T07:33:15.348Z,95861.72
2023-02-24T07:35:45.453Z,95864.09
2023-02-24T07:38:17.360Z,95857.19
2023-02-24T07:40:46.487Z,95858.63
2023-02-24T07:43:16.001Z,95858.00
2023-02-24T07:45:48.239Z,95868.41
2023-02-24T07:48:16.178Z,95863.88
2023-02-24T07:50:45.400Z,95863.00
2023-02-24T07:53:13.640Z,95860.16
2023-02-24T07:55:41.703Z,95858.72
2023-02-24T07:58:10.694Z,95856.19
2023-02-24T08:00:58.658Z,95862.91
2023-02-24T08:03:29.923Z,95862.91
2023-02-24T08:06:15.221Z,95858.34
2023-02-24T08:08:58.876Z,95863.63
2023-02-24T08:11:34.531Z,95856.44
2023-02-24T08:14:03.664Z,95851.75
2023-02-24T08:16:39.473Z,95846.38
2023-02-24T08:19:07.646Z,95850.19
2023-02-24T08:21:41.254Z,95849.09
2023-02-24T08:24:17.743Z,95842.03
2023-02-24T08:26:48.518Z,95838.47
2023-02-24T08:29:20.426Z,95842.50
2023-02-24T08:31:50.389Z,95839.66
2023-02-24T08:34:18.272Z,95827.31
2023-02-24T08:36:55.826Z,95828.16
2023-02-24T08:39:23.842Z,95833.41
2023-02-24T08:41:54.367Z,95824.09
2023-02-24T08:44:22.443Z,95821.94
2023-02-24T08:46:50.413Z,95825.41
2023-02-24T08:49:19.834Z,95824.31
2023-02-24T08:51:52.904Z,95819.16
2023-02-24T08:54:27.356Z,95815.06
2023-02-24T08:56:57.001Z,95811.03
2023-02-24T08:59:37.934Z,95803.84
2023-02-24T09:02:27.140Z,95811.34
2023-02-24T09:04:57.154Z,95812.78
2023-02-24T09:07:28.791Z,95808.69
2023-02-24T09:09:57.622Z,95810.81
2023-02-24T09:12:28.992Z,95807.66
2023-02-24T09:15:01.014Z,95797.97
2023-02-24T09:17:51.011Z,95801.44
2023-02-24T09:20:52.832Z,95797.13
2023-02-24T09:23:29.771Z,95788.00
2023-02-24T09:25:58.049Z,95799.75
2023-02-24T09:28:27.427Z,95794.97
2023-02-24T09:30:59.930Z,95794.44
2023-02-24T09:33:37.121Z,95795.84
2023-02-24T09:36:10.800Z,95784.22
2023-02-24T09:38:59.660Z,95788.72
2023-02-24T09:41:33.822Z,95787.56
2023-02-24T09:44:07.614Z,95788.00
2023-02-24T09:46:42.334Z,95775.28
2023-02-24T09:49:17.858Z,95772.53
2023-02-24T09:51:46.093Z,95766.59
2023-02-24T09:54:19.859Z,95764.38
2023-02-24T09:57:08.280Z,95769.84
2023-02-24T10:00:00.953Z,95769.66
2023-02-24T10:02:45.202Z,95759.03
2023-02-24T10:05:27.382Z,95754.34
2023-02-24T10:07:57.217Z,95748.50
2023-02-24T10:10:29.451Z,95752.44
2023-02-24T10:13:02.133Z,95750.91
2023-02-24T10:15:59.034Z,95746.84
2023-02-24T10:18:33.268Z,95744.94
2023-02-24T10:21:17.941Z,95738.41
2023-02-24T10:23:59.684Z,95736.63
2023-02-24T10:26:51.279Z,95736.06
2023-02-24T10:29:39.148Z,95726.78
2023-02-24T10:32:33.937Z,95725.78
2023-02-24T10:35:02.815Z,95728.84
2023-02-24T10:37:30.760Z,95730.78
2023-02-24T10:40:09.716Z,95730.34
2023-02-24T10:42:45.774Z,95724.09
2023-02-24T10:45:18.251Z,95719.66
2023-02-24T10:47:56.562Z,95719.41
2023-02-24T10:50:29.796Z,95717.59
2023-02-24T10:53:26.030Z,95716.63
2023-02-24T10:56:14.936Z,95721.44
2023-02-24T10:58:56.837Z,95706.03
2023-02-24T11:01:44.505Z,95706.28
2023-02-24T11:04:33.337Z,95696.19
2023-02-24T11:07:09.937Z,95699.91
2023-02-24T11:09:52.422Z,95700.03
2023-02-24T11:12:41.530Z,95694.06
2023-02-24T11:15:38.861Z,95688.97
2023-02-24T11:18:08.866Z,95692.81
2023-02-24T11:20:48.379Z,95686.09
2023-02-24T11:23:20.332Z,95683.25
2023-02-24T11:25:52.985Z,95685.31
2023-02-24T11:28:35.466Z,95678.94
2023-02-24T11:31:18.422Z,95667.97
2023-02-24T11:33:57.219Z,95659.66
2023-02-24T11:36:36.893Z,95657.75
2023-02-24T11:39:21.197Z,95646.38
2023-02-24T11:41:55.397Z,95644.88
2023-02-24T11:44:29.245Z,95632.50
2023-02-24T11:47:07.292Z,95624.72
2023-02-24T11:49:41.173Z,95618.22
2023-02-24T11:52:16.312Z,95616.16
2023-02-24T11:54:49.044Z,95609.50
2023-02-24T11:57:21.446Z,95599.25
2023-02-24T11:59:53.407Z,95595.38
2023-02-24T12:02:35.700Z,95593.56
2023-02-24T12:05:11.785Z,95589.25
2023-02-24T12:07:45.207Z,95585.75
2023-02-24T12:10:19.082Z,95577.03
2023-02-24T12:12:53.686Z,95565.94
2023-02-24T12:15:25.783Z,95566.91
2023-02-24T12:18:04.346Z,95567.44
2023-02-24T12:20:38.450Z,95556.88
2023-02-24T12:23:17.288Z,95553.97
2023-02-24T12:26:06.212Z,95555.59
2023-02-24T12:28:48.795Z,95548.47
2023-02-24T12:31:27.311Z,95537.34
2023-02-24T12:34:08.657Z,95540.44
2023-02-24T12:37:07.584Z,95532.75
2023-02-24T12:39:43.405Z,95528.56
2023-02-24T12:42:21.623Z,95525.78
2023-02-24T12:44:57.759Z,95529.41
2023-02-24T12:47:35.191Z,95521.47
2023-02-24T12:50:25.162Z,95520.22
2023-02-24T12:52:59.964Z,95517.41
2023-02-24T12:55:34.280Z,95512.13
2023-02-24T12:58:10.378Z,95515.75
2023-02-24T13:00:48.648Z,95498.28
2023-02-24T13:03:31.870Z,95496.78
2023-02-24T13:06:07.443Z,95491.47
2023-02-24T13:08:45.707Z,95494.38
2023-02-24T13:11:23.520Z,95489.09
2023-02-24T13:13:58.764Z,95488.38
2023-02-24T13:16:31.093Z,95481.88
2023-02-24T13:19:07.807Z,95477.94
2023-02-24T13:21:38.386Z,95473.03
2023-02-24T13:24:06.634Z,95473.16
2023-02-24T13:26:34.605Z,95480.25
2023-02-24T13:29:05.416Z,95473.78
2023-02-24T13:31:45.383Z,95466.97
2023-02-24T13:34:15.603Z,95458.25
2023-02-24T13:36:51.893Z,95454.31
2023-02-24T13:39:27.065Z,95444.59
2023-02-24T13:42:04.712Z,95447.06
2023-02-24T13:44:32.937Z,95440.66
2023-02-24T13:47:39.596Z,95435.38
2023-02-24T13:50:20.331Z,95423.63
2023-02-24T13:53:07.606Z,95432.50
2023-02-24T13:55:51.294Z,95434.47
2023-02-24T13:59:06.481Z,95425.03
2023-02-24T14:01:48.195Z,95413.81
2023-02-24T14:04:18.415Z,95417.09
2023-02-24T14:06:49.968Z,95427.81
2023-02-24T14:09:23.528Z,95418.41
2023-02-24T14:11:56.077Z,95411.44
2023-02-24T14:14:24.651Z,95413.56
2023-02-24T14:16:52.939Z,95414.38
2023-02-24T14:19:21.090Z,95398.31
2023-02-24T14:21:52.280Z,95407.22
2023-02-24T14:24:22.106Z,95399.75
2023-02-24T14:26:52.294Z,95403.34
2023-02-24T14:29:22.957Z,95394.72
2023-02-24T14:31:53.364Z,95388.69
2023-02-24T14:34:25.065Z,95384.78
2023-02-24T14:36:55.731Z,95393.16
2023-02-24T14:39:26.574Z,95396.78
2023-02-24T14:42:10.849Z,95389.88
2023-02-24T14:44:42.733Z,95389.03
2023-02-24T14:47:14.291Z,95387.38
2023-02-24T14:49:43.225Z,95378.25
2023-02-24T14:52:18.048Z,95384.47
2023-02-24T14:54:51.759Z,95383.50
2023-02-24T14:57:23.111Z,95381.31
2023-02-24T14:59:56.109Z,95372.72
2023-02-24T15:02:29.822Z,95362.31
2023-02-24T15:04:58.592Z,95362.47
2023-02-24T15:07:29.782Z,95355.09
2023-02-24T15:10:00.844Z,95366.06
2023-02-24T15:12:32.341Z,95352.75
2023-02-24T15:15:04.014Z,95343.16
2023-02-24T15:17:32.770Z,95333.28
2023-02-24T15:20:00.654Z,95340.53
2023-02-24T15:22:30.612Z,95330.81
2023-02-24T15:25:20.369Z,95336.22
2023-02-24T15:27:53.616Z,95329.44
2023-02-24T15:30:30.835Z,95327.81
2023-02-24T15:33:08.160Z,95329.19
2023-02-24T15:35:40.583Z,95323.94
2023-02-24T15:38:08.614Z,95323.63
2023-02-24T15:40:37.953Z,95323.94
2023-02-24T15:43:11.845Z,95312.56
2023-02-24T15:45:41.066Z,95325.06
2023-02-24T15:48:22.372Z,95311.34
2023-02-24T15:50:51.212Z,95314.25
2023-02-24T15:53:19.672Z,95314.25
2023-02-24T15:55:50.228Z,95318.31
2023-02-24T15:58:21.614Z,95315.81
2023-02-24T16:00:52.306Z,95324.00
2023-02-24T16:03:20.390Z,95318.50
2023-02-24T16:05:48.388Z,95315.91
2023-02-24T16:08:21.753Z,95312.00
2023-02-24T16:10:53.422Z,95318.53
2023-02-24T16:13:24.005Z,95318.53
2023-02-24T16:15:53.500Z,95321.16
2023-02-24T16:18:24.188Z,95310.28
2023-02-24T16:20:54.470Z,95304.31
2023-02-24T16:23:23.336Z,95313.13
2023-02-24T16:25:56.393Z,95306.66
2023-02-24T16:28:24.415Z,95304.16
2023-02-24T16:30:53.334Z,95293.59
2023-02-24T16:33:24.074Z,95300.81
2023-02-24T16:35:54.734Z,95301.41
2023-02-24T16:38:27.535Z,95310.69
2023-02-24T16:40:57.186Z,95316.38
2023-02-24T16:43:25.727Z,95319.13
2023-02-24T16:45:56.566Z,95313.75
2023-02-24T16:48:27.460Z,95309.44
2023-02-24T16:50:55.370Z,95306.69
2023-02-24T16:53:24.955Z,95309.03
2023-02-24T16:55:53.511Z,95303.09
2023-02-24T16:58:23.349Z,95300.44
2023-02-24T17:00:53.191Z,95298.81
2023-02-24T17:03:24.321Z,95291.75
2023-02-24T17:05:52.723Z,95305.59
2023-02-24T17:08:21.233Z,95301.44
2023-02-24T17:10:49.746Z,95306.44
2023-02-24T17:13:20.334Z,95318.75
2023-02-24T17:15:55.133Z,95308.66
2023-02-24T17:18:23.187Z,95302.28
2023-02-24T17:20:51.409Z,95311.03
2023-02-24T17:23:19.537Z,95308.94
2023-02-24T17:25:51.434Z,95310.47
2023-02-24T17:28:19.828Z,95314.22
2023-02-24T17:30:49.235Z,95328.19
2023-02-24T17:33:17.180Z,95322.41
2023-02-24T17:35:46.966Z,95327.38
2023-02-24T17:38:15.809Z,95318.09
2023-02-24T17:40:44.815Z,95318.22
2023-02-24T17:43:13.422Z,95321.00
2023-02-24T17:45:44.358Z,95309.66
2023-02-24T17:48:15.451Z,95314.75
2023-02-24T17:50:43.794Z,95314.34
2023-02-24T17:53:11.991Z,95315.47
2023-02-24T17:55:55.768Z,95323.63
2023-02-24T17:58:29.026Z,95315.88
2023-02-24T18:00:56.978Z,95314.34
2023-02-24T18:03:26.302Z,95299.69
2023-02-24T18:05:59.395Z,95300.38
2023-02-24T18:08:27.315Z,95304.25
2023-02-24T18:10:55.177Z,95291.22
2023-02-24T18:13:23.002Z,95289.41
2023-02-24T18:15:50.920Z,95291.09
2023-02-24T18:18:18.831Z,95289.28
2023-02-24T18:20:48.175Z,95292.19
2023-02-24T18:23:16.325Z,95297.03
2023-02-24T18:25:44.727Z,95296.06
2023-02-24T18:28:12.763Z,95296.88
2023-02-24T18:30:40.988Z,95294.53
2023-02-24T18:33:09.032Z,95307.00
2023-02-24T18:35:38.741Z,95299.22
2023-02-24T18:38:11.789Z,95307.28
2023-02-24T18:40:40.021Z,95303.38
2023-02-24T18:43:07.900Z,95295.34
2023-02-24T18:45:35.709Z,95300.59
2023-02-24T18:48:05.114Z,95310.59
2023-02-24T18:50:34.204Z,95311.00
2023-02-24T18:53:02.203Z,95309.31
2023-02-24T18:55:31.578Z,95319.94
2023-02-24T18:57:59.554Z,95312.63
2023-02-24T19:00:27.707Z,95305.84
2023-02-24T19:02:55.708Z,95300.41
2023-02-24T19:05:24.938Z,95306.13
2023-02-24T19:07:53.964Z,95294.50
2023-02-24T19:10:21.894Z,95299.47
2023-02-24T19:12:51.989Z,95302.50
2023-02-24T19:15:20.373Z,95301.91
2023-02-24T19:17:48.270Z,95297.53
2023-02-24T19:20:16.182Z,95303.19
2023-02-24T19:22:44.481Z,95305.34
2023-02-24T19:25:12.482Z,95311.91
2023-02-24T19:27:40.479Z,95308.03
2023-02-24T19:30:11.321Z,95309.38
2023-02-24T19:32:39.477Z,95301.91
2023-02-24T19:35:08.146Z,95303.28
2023-02-24T19:37:36.235Z,95308.53
2023-02-24T19:40:04.698Z,95311.88
2023-02-24T19:42:32.536Z,95302.88
2023-02-24T19:45:00.587Z,95290.56
2023-02-24T19:47:29.819Z,95289.31
2023-02-24T19:49:57.704Z,95286.00
2023-02-24T19:52:25.963Z,95277.63
2023-02-24T19:54:57.737Z,95287.66
2023-02-24T19:57:26.361Z,95284.72
2023-02-24T19:59:54.520Z,95287.19
2023-02-24T20:02:22.413Z,95281.66
2023-02-24T20:04:51.777Z,95294.66
2023-02-24T20:07:19.759Z,95304.47
2023-02-24T20:09:47.739Z,95303.47
2023-02-24T20:12:15.684Z,95311.66
2023-02-24T20:14:43.647Z,95307.38
2023-02-24T20:17:11.549Z,95307.06
2023-02-24T20:19:39.416Z,95306.53
2023-02-24T20:22:08.650Z,95309.31
2023-02-24T20:24:36.804Z,95303.22
2023-02-24T20:27:05.194Z,95300.44
2023-02-24T20:29:35.169Z,95308.47
2023-02-24T20:32:03.722Z,95309.41
2023-02-24T20:34:31.623Z,95303.47
2023-02-24T20:36:59.481Z,95315.66
2023-02-24T20:39:28.821Z,95313.41
2023-02-24T20:41:56.633Z,95315.47
2023-02-24T20:44:24.613Z,95326.63
2023-02-24T20:46:52.993Z,95334.03
2023-02-24T20:49:21.190Z,95328.50
2023-02-24T20:51:49.122Z,95325.28
2023-02-24T20:54:17.850Z,95332.59
2023-02-24T20:56:48.216Z,95335.66
2023-02-24T20:59:18.258Z,95332.72
2023-02-24T21:01:48.114Z,95329.53
2023-02-24T21:04:18.491Z,95334.09
2023-02-24T21:06:47.676Z,95347.91
2023-02-24T21:09:16.175Z,95338.88
2023-02-24T21:11:44.104Z,95348.78
2023-02-24T21:14:16.695Z,95344.53
2023-02-24T21:16:46.768Z,95334.97
2023-02-24T21:19:14.867Z,95341.75
2023-02-24T21:21:42.748Z,95337.81
2023-02-24T21:24:10.562Z,95340.75
2023-02-24T21:26:38.415Z,95345.47
2023-02-24T21:29:06.428Z,95344.31
2023-02-24T21:31:35.750Z,95342.66
2023-02-24T21:34:03.803Z,95344.91
2023-02-24T21:36:31.615Z,95340.97
2023-02-24T21:39:01.000Z,95342.69
2023-02-24T21:41:28.836Z,95342.41
2023-02-24T21:43:56.898Z,95338.50
2023-02-24T21:46:28.281Z,95344.94
2023-02-24T21:48:58.599Z,95355.97
2023-02-24T21:51:27.999Z,95381.78
2023-02-24T21:53:56.828Z,95396.03
2023-02-24T21:56:26.562Z,95406.78
2023-02-24T21:58:58.137Z,95403.19
2023-02-24T22:01:27.744Z,95415.22
2023-02-24T22:03:58.803Z,95424.66
2023-02-24T22:06:31.354Z,95423.69
2023-02-24T22:09:00.466Z,95414.16
2023-02-24T22:11:30.329Z,95412.88
2023-02-24T22:13:58.158Z,95410.84
2023-02-24T22:16:27.319Z,95424.28
2023-02-24T22:18:57.448Z,95422.22
2023-02-24T22:21:28.120Z,95432.31
2023-02-24T22:23:59.290Z,95428.03
2023-02-24T22:26:28.868Z,95435.78
2023-02-24T22:28:57.224Z,95427.19
2023-02-24T22:31:26.954Z,95425.63
2023-02-24T22:33:54.961Z,95424.31
2023-02-24T22:36:26.195Z,95417.06
2023-02-24T22:38:55.548Z,95408.88
2023-02-24T22:41:26.739Z,95413.50
2023-02-24T22:43:54.923Z,95415.84
2023-02-24T22:46:26.302Z,95420.41
2023-02-24T22:48:54.493Z,95420.28
2023-02-24T22:51:22.264Z,95425.16
2023-02-24T22:53:52.009Z,95428.69
2023-02-24T22:56:22.569Z,95432.03
2023-02-24T22:58:51.189Z,95431.56
2023-02-24T23:01:21.939Z,95428.69
2023-02-24T23:03:49.966Z,95429.75
2023-02-24T23:06:20.418Z,95427.38
2023-02-24T23:08:50.375Z,95421.81
2023-02-24T23:11:24.765Z,95434.16
2023-02-24T23:13:53.091Z,95439.41
2023-02-24T23:16:24.135Z,95440.22
2023-02-24T23:18:53.812Z,95436.22
2023-02-24T23:21:23.821Z,95429.56
2023-02-24T23:23:56.886Z,95431.66
2023-02-24T23:26:29.890Z,95427.28
2023-02-24T23:28:57.923Z,95429.66
2023-02-24T23:31:26.383Z,95434.91
2023-02-24T23:33:55.092Z,95440.38
2023-02-24T23:36:24.663Z,95444.16
2023-02-24T23:38:53.121Z,95444.38
2023-02-24T23:41:21.423Z,95450.22
2023-02-24T23:43:50.617Z,95436.88
2023-02-24T23:46:18.600Z,95445.75
2023-02-24T23:48:46.774Z,95452.44
2023-02-24T23:51:16.236Z,95453.00
2023-02-24T23:53:46.435Z,95455.53
2023-02-24T23:56:16.521Z,95463.28
2023-02-24T23:58:45.222Z,95450.28
